Time;durP1;ratioP1;P1;durP2;ratioP2;P2;SDS_P1;SDS_P2;PMS_P1;PMS_P2;Temp;Humidity;BMP_temperature;BMP_pressure;BME280_temperature;BME280_humidity;BME280_pressure;Samples;Min_cycle;Max_cycle;Signal;HPM_P1;HPM_P2
2022/05/30 00:01:11;;;;;;;7.10;1.65;;;;;;;10.02;92.29;101311.44;4988982;28;20050;-57
2022/05/30 00:03:39;;;;;;;10.43;2.30;;;;;;;10.07;92.61;101307.59;4990564;28;20052;-63
2022/05/30 00:06:09;;;;;;;8.27;1.70;;;;;;;10.12;92.56;101304.75;4993346;28;20050;-54
2022/05/30 00:08:38;;;;;;;6.95;1.85;;;;;;;10.03;92.75;101307.88;4992708;28;20058;-55
2022/05/30 00:11:08;;;;;;;8.70;2.20;;;;;;;9.97;93.55;101307.28;4992874;28;20084;-53
2022/05/30 00:13:37;;;;;;;8.32;1.90;;;;;;;9.96;92.91;101300.31;4989645;28;20050;-62
2022/05/30 00:16:07;;;;;;;7.97;1.90;;;;;;;9.93;94.01;101302.28;4991293;28;20042;-60
2022/05/30 00:18:36;;;;;;;7.43;1.67;;;;;;;9.87;92.71;101303.47;4991394;28;20505;-55
2022/05/30 00:21:04;;;;;;;8.63;1.60;;;;;;;9.97;92.09;101301.19;4989419;28;20122;-56
2022/05/30 00:23:32;;;;;;;7.97;1.98;;;;;;;9.96;91.64;101305.56;4989979;28;20529;-56
2022/05/30 00:26:00;;;;;;;7.05;1.52;;;;;;;9.94;91.83;101301.38;4991701;28;20070;-61
2022/05/30 00:28:29;;;;;;;8.18;1.85;;;;;;;9.88;91.51;101297.25;4989052;28;20058;-56
2022/05/30 00:30:58;;;;;;;8.55;1.58;;;;;;;9.97;91.57;101293.31;4987636;28;20054;-55
2022/05/30 00:33:27;;;;;;;10.40;2.00;;;;;;;9.78;93.30;101296.94;4990733;28;20153;-61
2022/05/30 00:35:55;;;;;;;8.90;2.22;;;;;;;9.81;92.85;101290.66;4991759;28;20053;-62
2022/05/30 00:38:23;;;;;;;9.30;1.65;;;;;;;9.85;92.57;101291.34;4990899;28;20066;-57
2022/05/30 00:40:51;;;;;;;8.02;1.77;;;;;;;9.85;93.37;101286.09;4991571;28;20154;-56
2022/05/30 00:43:26;;;;;;;7.25;1.75;;;;;;;9.83;93.66;101291.44;4992057;28;20121;-56
2022/05/30 00:45:55;;;;;;;10.75;2.00;;;;;;;9.76;94.81;101282.19;4991996;28;20125;-56
2022/05/30 00:48:30;;;;;;;6.75;1.83;;;;;;;9.76;95.49;101285.66;4991885;28;20054;-56
2022/05/30 00:51:02;;;;;;;6.88;2.13;;;;;;;9.68;95.49;101274.75;4992168;28;20058;-62
2022/05/30 00:53:32;;;;;;;10.77;1.95;;;;;;;9.67;96.41;101280.03;4992002;28;20057;-62
2022/05/30 00:56:01;;;;;;;7.25;1.67;;;;;;;9.63;96.09;101279.38;4990201;28;20046;-62
2022/05/30 00:58:35;;;;;;;9.10;1.95;;;;;;;9.63;96.84;101282.84;4987518;28;20058;-62
2022/05/30 01:01:03;;;;;;;8.00;2.30;;;;;;;9.68;97.28;101287.88;4991206;28;20054;-62
2022/05/30 01:06:33;;;;;;;9.40;1.80;;;;;;;9.82;95.96;101276.59;4992390;28;20046;-61
2022/05/30 01:09:06;;;;;;;8.27;2.00;;;;;;;9.72;96.05;101284.16;4992155;28;20046;-54
2022/05/30 01:11:47;;;;;;;;;;;;;;;9.77;96.06;101286.50;4992864;28;20420;-62
2022/05/30 01:14:15;;;;;;;7.90;1.80;;;;;;;9.77;96.18;101276.00;4990647;28;19929;-55
2022/05/30 01:16:43;;;;;;;7.00;2.08;;;;;;;9.72;96.95;101280.66;4989018;28;20089;-54
2022/05/30 01:19:26;;;;;;;7.68;1.75;;;;;;;9.73;96.74;101279.72;4991158;28;20439;-55
2022/05/30 01:22:19;;;;;;;11.27;2.00;;;;;;;9.64;96.33;101284.56;4992752;28;20497;-56
2022/05/30 01:24:56;;;;;;;13.52;2.53;;;;;;;9.63;96.27;101277.59;4993271;28;20049;-56
2022/05/30 01:27:37;;;;;;;13.30;2.20;;;;;;;9.69;96.73;101279.03;4994751;28;20050;-56
2022/05/30 01:30:11;;;;;;;13.13;2.38;;;;;;;9.72;96.44;101271.00;4995827;28;20054;-55
2022/05/30 01:32:39;;;;;;;8.05;1.92;;;;;;;9.70;96.85;101274.66;4995959;28;20053;-55
2022/05/30 01:35:09;;;;;;;10.63;2.05;;;;;;;9.66;96.43;101267.88;4995796;28;20458;-61
2022/05/30 01:37:37;;;;;;;8.05;1.73;;;;;;;9.57;97.04;101261.31;4995649;28;20363;-55
2022/05/30 01:40:06;;;;;;;9.35;1.98;;;;;;;9.48;96.36;101267.94;4995546;28;20078;-56
2022/05/30 01:42:34;;;;;;;9.00;2.10;;;;;;;9.38;97.46;101257.09;4995738;28;20121;-55
2022/05/30 01:45:03;;;;;;;11.88;2.00;;;;;;;9.37;97.37;101255.38;4995652;28;20050;-56
2022/05/30 01:47:32;;;;;;;7.53;2.08;;;;;;;9.32;97.60;101254.78;4995670;28;20046;-56
2022/05/30 01:50:00;;;;;;;9.20;1.83;;;;;;;9.39;97.06;101257.91;4993629;28;20093;-56
2022/05/30 01:52:29;;;;;;;9.02;2.22;;;;;;;9.29;97.80;101257.56;4992470;28;20050;-57
2022/05/30 01:54:57;;;;;;;11.75;2.08;;;;;;;9.30;97.00;101262.72;4994032;28;20108;-57
2022/05/30 01:57:25;;;;;;;10.43;2.10;;;;;;;9.30;97.57;101262.72;4995404;28;20501;-61
2022/05/30 01:59:53;;;;;;;9.20;2.10;;;;;;;9.23;97.78;101264.00;4994018;28;20101;-62
2022/05/30 02:02:22;;;;;;;8.52;2.60;;;;;;;9.17;97.78;101253.81;4995491;28;20062;-62
2022/05/30 02:04:53;;;;;;;8.38;2.13;;;;;;;9.03;99.00;101245.81;4995267;28;20133;-61
2022/05/30 02:07:21;;;;;;;6.85;2.00;;;;;;;9.12;98.41;101245.31;4992942;28;20058;-60
2022/05/30 02:09:49;;;;;;;9.27;2.53;;;;;;;9.04;98.51;101247.50;4991642;28;20053;-62
2022/05/30 02:12:17;;;;;;;8.82;2.30;;;;;;;8.89;100.00;101247.38;4995165;28;20466;-61
2022/05/30 02:14:46;;;;;;;8.60;2.03;;;;;;;8.78;100.00;101244.44;4995351;28;20039;-61
2022/05/30 02:17:14;;;;;;;9.52;2.65;;;;;;;8.78;100.00;101244.44;4995214;28;20101;-61
2022/05/30 02:19:45;;;;;;;7.47;2.28;;;;;;;8.73;99.92;101249.94;4994873;28;20109;-61
2022/05/30 02:22:16;;;;;;;9.13;2.10;;;;;;;8.71;100.00;101251.81;4995077;28;20054;-60
2022/05/30 02:24:45;;;;;;;8.85;2.42;;;;;;;8.74;99.90;101248.16;4994757;28;20066;-62
2022/05/30 02:27:13;;;;;;;9.23;2.40;;;;;;;8.71;100.00;101243.94;4991601;28;20070;-61
2022/05/30 02:29:42;;;;;;;9.30;2.20;;;;;;;8.66;100.00;101247.69;4991246;28;20501;-61
2022/05/30 02:32:10;;;;;;;7.75;1.90;;;;;;;8.74;99.50;101246.41;4994503;28;20196;-57
2022/05/30 02:37:26;;;;;;;9.57;2.25;;;;;;;8.65;100.00;101248.63;4993983;28;20065;-57
2022/05/30 02:39:54;;;;;;;9.35;2.40;;;;;;;8.57;100.00;101242.00;4994038;28;20379;-52
2022/05/30 02:42:22;;;;;;;7.68;1.98;;;;;;;8.54;100.00;101243.94;4994478;28;20050;-54
2022/05/30 02:44:50;;;;;;;8.50;2.33;;;;;;;8.51;100.00;101244.06;4994105;28;20050;-55
2022/05/30 02:47:18;;;;;;;9.00;2.08;;;;;;;8.53;100.00;101247.47;4994322;28;20401;-54
2022/05/30 02:49:46;;;;;;;6.65;2.25;;;;;;;8.45;100.00;101246.09;4994803;28;20084;-56
2022/05/30 02:52:14;;;;;;;9.80;2.50;;;;;;;8.50;100.00;101243.22;4994695;28;20070;-61
2022/05/30 02:54:44;;;;;;;10.07;2.63;;;;;;;8.36;100.00;101245.69;4994450;28;20108;-53
2022/05/30 02:57:12;;;;;;;8.52;2.03;;;;;;;8.32;100.00;101244.09;4994720;28;20051;-56
2022/05/30 02:59:40;;;;;;;9.10;2.50;;;;;;;8.34;100.00;101244.88;4994157;28;20434;-61
2022/05/30 03:02:08;;;;;;;10.25;2.70;;;;;;;8.14;100.00;101238.88;4992994;28;20456;-62
2022/05/30 03:04:36;;;;;;;8.35;2.03;;;;;;;8.19;100.00;101249.09;4994482;28;20160;-61
2022/05/30 03:07:05;;;;;;;8.70;2.67;;;;;;;8.20;100.00;101253.44;4994173;28;20043;-55
2022/05/30 03:09:33;;;;;;;8.68;2.70;;;;;;;8.16;100.00;101249.25;4994462;28;20061;-61
2022/05/30 03:12:03;;;;;;;7.45;1.98;;;;;;;8.06;100.00;101254.94;4994154;28;20042;-57
2022/05/30 03:14:31;;;;;;;7.95;2.50;;;;;;;7.95;100.00;101252.84;4993878;28;20042;-62
2022/05/30 03:16:59;;;;;;;9.48;2.25;;;;;;;7.94;100.00;101256.38;4990365;28;20693;-61
2022/05/30 03:19:27;;;;;;;6.63;2.38;;;;;;;7.89;100.00;101247.88;4992235;28;20054;-55
2022/05/30 03:21:55;;;;;;;9.60;2.53;;;;;;;7.93;100.00;101257.31;4993799;28;20070;-61
2022/05/30 03:24:23;;;;;;;7.32;2.55;;;;;;;7.86;100.00;101263.75;4993924;28;20129;-61
2022/05/30 03:26:51;;;;;;;9.07;2.50;;;;;;;7.89;100.00;101258.34;4992224;28;20054;-62
2022/05/30 03:29:20;;;;;;;8.45;3.17;;;;;;;7.84;100.00;101264.72;4989012;28;20486;-61
2022/05/30 03:31:48;;;;;;;8.95;2.50;;;;;;;7.85;100.00;101264.66;4989935;28;20482;-62
2022/05/30 03:34:17;;;;;;;11.63;2.78;;;;;;;7.83;100.00;101265.66;4993333;28;20113;-61
2022/05/30 03:36:45;;;;;;;8.45;2.75;;;;;;;7.75;100.00;101260.78;4993153;28;20073;-61
2022/05/30 03:39:13;;;;;;;8.13;3.00;;;;;;;7.77;100.00;101253.69;4993510;28;20132;-61
2022/05/30 03:41:41;;;;;;;10.13;2.95;;;;;;;7.73;100.00;101260.84;4990786;28;20069;-61
2022/05/30 03:44:10;;;;;;;10.02;2.92;;;;;;;7.67;100.00;101260.28;4988711;28;20108;-61
2022/05/30 03:46:39;;;;;;;9.77;3.05;;;;;;;7.65;100.00;101260.38;4992023;28;20081;-56
2022/05/30 03:49:07;;;;;;;8.15;2.40;;;;;;;7.76;100.00;101259.88;4993453;28;20093;-55
2022/05/30 03:51:36;;;;;;;11.85;3.03;;;;;;;7.72;100.00;101260.94;4993346;28;20485;-54
2022/05/30 03:54:04;;;;;;;8.88;3.30;;;;;;;7.74;100.00;101259.94;4991717;28;20049;-60
2022/05/30 03:56:32;;;;;;;6.72;2.72;;;;;;;7.67;100.00;101255.06;4993210;28;20050;-60
2022/05/30 03:59:00;;;;;;;9.75;2.78;;;;;;;7.60;100.00;101257.09;4990590;28;20120;-54
2022/05/30 04:01:28;;;;;;;8.18;3.35;;;;;;;7.68;100.00;101256.75;4989667;28;20144;-53
2022/05/30 04:03:58;;;;;;;7.43;2.67;;;;;;;7.74;100.00;101253.84;4991277;28;20050;-55
2022/05/30 04:06:26;;;;;;;9.52;2.88;;;;;;;7.66;100.00;101253.34;4992925;28;20046;-57
2022/05/30 04:08:54;;;;;;;9.68;3.05;;;;;;;7.77;100.00;101254.56;4992481;28;20049;-54
2022/05/30 04:11:22;;;;;;;11.18;3.67;;;;;;;7.74;100.00;101253.84;4989701;28;20089;-57
2022/05/30 04:13:50;;;;;;;9.45;3.53;;;;;;;7.73;100.00;101247.75;4990602;28;20058;-54
2022/05/30 04:16:19;;;;;;;9.23;3.40;;;;;;;7.71;100.00;101252.22;4993381;28;20369;-56
2022/05/30 04:18:47;;;;;;;8.00;2.90;;;;;;;7.71;100.00;101254.84;4992800;28;20501;-55
2022/05/30 04:21:17;;;;;;;10.38;3.20;;;;;;;7.75;100.00;101248.53;4992640;28;20117;-56
2022/05/30 04:23:45;;;;;;;12.20;3.80;;;;;;;7.79;100.00;101246.63;4992905;28;20054;-55
2022/05/30 04:26:15;;;;;;;7.43;3.08;;;;;;;7.85;100.00;101253.34;4991541;28;20085;-53
2022/05/30 04:28:44;;;;;;;12.05;4.03;;;;;;;7.89;100.00;101254.88;4987202;28;20453;-56
2022/05/30 04:31:14;;;;;;;7.85;3.20;;;;;;;7.93;100.00;101259.06;4990685;28;20129;-56
2022/05/30 04:33:42;;;;;;;12.73;3.55;;;;;;;8.00;100.00;101249.97;4988804;28;20073;-52
2022/05/30 04:36:12;;;;;;;9.27;3.25;;;;;;;8.03;100.00;101249.00;4989317;28;20069;-55
2022/05/30 04:38:42;;;;;;;7.93;3.40;;;;;;;8.09;100.00;101249.53;4992170;28;20061;-57
2022/05/30 04:41:11;;;;;;;9.10;3.28;;;;;;;8.13;100.00;101248.47;4992789;28;20057;-54
2022/05/30 04:43:39;;;;;;;9.27;3.30;;;;;;;8.18;100.00;101247.41;4992513;28;20497;-57
2022/05/30 04:46:10;;;;;;;8.55;3.22;;;;;;;8.25;100.00;101254.91;4989488;28;20054;-55
2022/05/30 04:48:39;;;;;;;8.75;3.72;;;;;;;8.32;100.00;101252.84;4989389;28;20386;-54
2022/05/30 04:51:07;;;;;;;9.70;3.13;;;;;;;8.35;100.00;101257.06;4992451;28;20118;-54
2022/05/30 04:53:35;;;;;;;7.70;3.00;;;;;;;8.40;100.00;101255.91;4990591;28;20054;-54
2022/05/30 04:56:05;;;;;;;10.05;3.10;;;;;;;8.45;100.00;101255.72;4987794;28;20054;-60
2022/05/30 04:58:35;;;;;;;9.73;2.90;;;;;;;8.46;100.00;101265.28;4991777;28;20042;-61
2022/05/30 05:01:06;;;;;;;6.82;2.85;;;;;;;8.52;100.00;101262.38;4988942;28;20056;-61
2022/05/30 05:03:35;;;;;;;8.48;2.78;;;;;;;8.61;100.00;101264.50;4990189;28;20061;-61
2022/05/30 05:06:04;;;;;;;9.60;2.53;;;;;;;8.61;100.00;101261.03;4991171;28;20051;-61
2022/05/30 05:08:39;;;;;;;5.40;2.50;;;;;;;8.65;100.00;101262.59;4992525;28;20050;-61
2022/05/30 05:11:19;;;;;;;7.22;2.60;;;;;;;8.77;100.00;101266.38;4991913;28;20054;-61
2022/05/30 05:13:47;;;;;;;6.78;2.05;;;;;;;8.89;100.00;101270.13;4991911;28;20054;-60
2022/05/30 05:16:17;;;;;;;5.15;1.90;;;;;;;8.94;100.00;101266.38;4990377;28;20054;-61
2022/05/30 05:18:46;;;;;;;4.30;1.65;;;;;;;8.99;100.00;101267.91;4990035;28;20075;-61
2022/05/30 05:21:19;;;;;;;4.40;1.85;;;;;;;9.08;100.00;101270.03;4990638;28;20074;-60
2022/05/30 05:23:56;;;;;;;4.32;1.73;;;;;;;9.11;100.00;101269.88;4990684;28;20062;-60
2022/05/30 05:26:26;;;;;;;7.22;1.70;;;;;;;9.18;100.00;101271.25;4992278;28;20054;-60
2022/05/30 05:28:54;;;;;;;6.53;1.88;;;;;;;9.22;100.00;101272.78;4992247;28;20109;-61
2022/05/30 05:31:25;;;;;;;7.20;1.80;;;;;;;9.20;98.50;101273.78;4992067;28;20105;-61
2022/05/30 05:33:55;;;;;;;3.97;1.55;;;;;;;9.31;99.82;101271.44;4991570;28;20105;-55
2022/05/30 05:36:25;;;;;;;6.20;1.83;;;;;;;9.42;99.70;101273.50;4991443;28;20046;-53
2022/05/30 05:38:54;;;;;;;4.93;1.58;;;;;;;9.52;98.27;101274.72;4990945;28;20046;-60
2022/05/30 05:41:23;;;;;;;6.38;1.65;;;;;;;9.59;98.13;101270.81;4988601;28;20846;-53
2022/05/30 05:43:53;;;;;;;4.22;1.70;;;;;;;9.65;96.86;101277.50;4990177;28;20121;-61
2022/05/30 05:46:24;;;;;;;3.83;1.55;;;;;;;9.81;97.86;101278.38;4988859;28;20058;-61
2022/05/30 05:48:53;;;;;;;6.82;2.85;;;;;;;9.94;98.25;101277.72;4988404;28;20420;-56
2022/05/30 05:51:22;;;;;;;5.93;2.20;;;;;;;10.03;97.26;101269.28;4991497;28;20101;-54
2022/05/30 05:53:51;;;;;;;7.38;1.80;;;;;;;10.15;95.76;101271.22;4990400;28;20149;-54
2022/05/30 05:56:21;;;;;;;6.97;1.80;;;;;;;10.27;94.28;101271.50;4991954;28;20565;-61
2022/05/30 05:58:52;;;;;;;3.97;1.55;;;;;;;10.30;90.97;101276.56;4991757;28;20046;-61
2022/05/30 06:01:23;;;;;;;5.63;1.40;;;;;;;10.43;92.21;101279.34;4991898;28;20054;-61
2022/05/30 06:03:53;;;;;;;7.82;2.20;;;;;;;10.47;91.94;101279.09;4991877;28;20053;-61
2022/05/30 06:06:22;;;;;;;6.53;1.75;;;;;;;10.60;92.08;101283.66;4993368;28;20057;-61
2022/05/30 06:08:53;;;;;;;8.57;1.80;;;;;;;10.70;89.63;101276.06;4995204;28;20130;-53
2022/05/30 06:11:22;;;;;;;5.35;1.90;;;;;;;10.78;89.04;101272.06;4995140;28;20050;-53
2022/05/30 06:13:52;;;;;;;6.70;1.90;;;;;;;10.89;89.03;101276.66;4993888;28;20137;-55
2022/05/30 06:16:23;;;;;;;6.15;1.60;;;;;;;11.03;87.29;101277.63;4995190;28;20409;-61
2022/05/30 06:18:54;;;;;;;4.70;2.25;;;;;;;11.19;86.96;101283.66;4995097;28;20550;-61
2022/05/30 06:21:24;;;;;;;6.93;2.00;;;;;;;11.31;86.12;101282.91;4995085;28;20057;-61
2022/05/30 06:23:54;;;;;;;5.43;1.42;;;;;;;11.39;83.13;101289.50;4991510;28;20136;-61
2022/05/30 06:26:24;;;;;;;6.28;1.52;;;;;;;11.41;81.17;101292.88;4991765;28;20050;-61
2022/05/30 06:28:55;;;;;;;4.43;1.35;;;;;;;11.47;81.89;101295.97;4992979;28;20065;-61
2022/05/30 06:31:26;;;;;;;7.50;1.88;;;;;;;11.60;83.34;101296.09;4991542;28;20101;-52
2022/05/30 06:33:55;;;;;;;4.60;1.50;;;;;;;11.79;83.22;101289.63;4991935;28;20050;-54
2022/05/30 06:36:25;;;;;;;4.50;1.50;;;;;;;11.91;83.39;101290.66;4994702;28;20045;-60
2022/05/30 06:38:54;;;;;;;4.82;1.33;;;;;;;12.00;77.86;101301.50;4994484;28;20478;-61
2022/05/30 06:41:23;;;;;;;4.38;1.00;;;;;;;12.11;77.76;101299.97;4994797;28;20050;-61
2022/05/30 06:43:57;;;;;;;2.15;0.80;;;;;;;12.26;78.78;101293.69;4994615;28;20061;-61
2022/05/30 06:46:25;;;;;;;7.28;1.05;;;;;;;12.37;75.82;101290.34;4994380;28;20050;-61
2022/05/30 06:48:55;;;;;;;6.53;1.20;;;;;;;12.46;75.21;101295.03;4994652;28;20064;-61
2022/05/30 06:51:25;;;;;;;4.47;0.95;;;;;;;12.47;72.94;101298.50;4991207;28;20074;-55
2022/05/30 06:53:53;;;;;;;4.85;1.10;;;;;;;12.45;74.57;101298.59;4991415;28;20062;-56
2022/05/30 06:56:23;;;;;;;3.10;0.73;;;;;;;12.43;71.39;101297.00;4994407;28;20035;-52
2022/05/30 06:58:52;;;;;;;5.50;1.00;;;;;;;12.57;70.90;101301.38;4994425;28;20170;-55
2022/05/30 07:01:23;;;;;;;3.53;1.00;;;;;;;12.64;72.30;101306.16;4994336;28;20066;-54
2022/05/30 07:03:52;;;;;;;4.55;0.80;;;;;;;12.84;69.94;101309.22;4990930;28;20050;-56
2022/05/30 07:06:22;;;;;;;2.53;0.95;;;;;;;12.91;68.85;101314.94;4990781;28;20485;-56
2022/05/30 07:08:51;;;;;;;4.10;0.80;;;;;;;13.01;70.80;101311.59;4993618;28;20046;-55
2022/05/30 07:11:20;;;;;;;2.72;0.70;;;;;;;13.14;71.34;101308.97;4993871;28;20731;-54
2022/05/30 07:13:49;;;;;;;4.00;0.80;;;;;;;13.18;68.21;101310.44;4993996;28;20050;-56
2022/05/30 07:16:18;;;;;;;4.60;0.90;;;;;;;13.24;66.84;101311.81;4994166;28;20042;-56
2022/05/30 07:18:48;;;;;;;5.15;0.77;;;;;;;13.27;68.95;101310.75;4992879;28;20421;-55
2022/05/30 07:21:16;;;;;;;3.30;0.82;;;;;;;13.17;66.14;101311.38;4992580;28;20061;-55
2022/05/30 07:23:44;;;;;;;6.43;1.33;;;;;;;13.00;65.29;101315.16;4992331;28;20050;-55
2022/05/30 07:26:16;;;;;;;1.95;0.70;;;;;;;13.12;66.28;101312.66;4993824;28;20058;-54
2022/05/30 07:28:45;;;;;;;3.15;0.80;;;;;;;13.32;65.55;101314.78;4993299;28;20050;-55
2022/05/30 07:31:15;;;;;;;4.00;0.75;;;;;;;13.50;64.53;101319.75;4993220;28;20544;-56
2022/05/30 07:33:46;;;;;;;2.67;0.80;;;;;;;13.67;63.64;101313.28;4991681;28;20049;-55
2022/05/30 07:36:17;;;;;;;2.80;0.90;;;;;;;13.63;65.32;101322.38;4989545;28;20050;-55
2022/05/30 07:38:46;;;;;;;2.93;0.70;;;;;;;13.65;65.02;101309.91;4991761;28;20051;-55
2022/05/30 07:41:14;;;;;;;4.45;0.93;;;;;;;13.61;63.02;101319.00;4993182;28;20046;-55
2022/05/30 07:43:42;;;;;;;2.42;0.82;;;;;;;13.63;62.92;101317.94;4988023;28;20061;-54
2022/05/30 07:46:12;;;;;;;2.15;0.63;;;;;;;13.79;65.15;101316.84;4990106;28;20105;-56
2022/05/30 07:48:41;;;;;;;3.20;0.60;;;;;;;13.56;64.04;101316.66;4993029;28;20078;-55
2022/05/30 07:51:10;;;;;;;2.70;0.70;;;;;;;13.75;64.98;101316.22;4992941;28;20121;-61
2022/05/30 07:53:41;;;;;;;5.63;0.95;;;;;;;13.88;64.66;101310.06;4990230;28;20051;-60
2022/05/30 07:56:11;;;;;;;4.88;1.23;;;;;;;14.11;64.52;101308.38;4989237;28;20580;-61
2022/05/30 07:58:39;;;;;;;3.72;0.80;;;;;;;14.01;62.75;101303.75;4991703;28;20551;-60
2022/05/30 08:01:12;;;;;;;4.25;0.88;;;;;;;14.10;62.48;101304.91;4992772;28;20134;-61
2022/05/30 08:03:41;;;;;;;3.72;0.85;;;;;;;14.14;61.45;101308.19;4992561;28;20544;-60
2022/05/30 08:06:13;;;;;;;4.80;0.80;;;;;;;14.28;61.72;101309.81;4993271;28;20073;-55
2022/05/30 08:08:44;;;;;;;3.88;0.88;;;;;;;14.41;63.03;101312.38;4993106;28;20058;-61
2022/05/30 08:11:15;;;;;;;3.08;0.68;;;;;;;14.39;62.43;101315.16;4993159;28;20050;-53
2022/05/30 08:13:45;;;;;;;5.05;0.88;;;;;;;14.42;61.63;101314.91;4992923;28;20144;-61
2022/05/30 08:16:16;;;;;;;3.60;0.70;;;;;;;14.51;63.06;101308.13;4993158;28;20489;-61
2022/05/30 08:19:05;;;;;;;4.03;1.02;;;;;;;14.60;62.11;101318.03;4993007;28;20406;-55
2022/05/30 08:21:37;;;;;;;5.38;1.10;;;;;;;14.55;62.60;101312.22;4991816;28;20058;-62
2022/05/30 08:24:07;;;;;;;3.80;1.20;;;;;;;14.58;62.41;101309.34;4992935;28;20052;-62
2022/05/30 08:26:36;;;;;;;7.90;1.10;;;;;;;14.10;64.37;101314.66;4993429;28;20517;-55
2022/05/30 08:29:04;;;;;;;5.93;1.27;;;;;;;14.26;64.76;101314.34;4992671;28;20481;-55
2022/05/30 08:31:32;;;;;;;5.03;1.13;;;;;;;14.43;63.74;101311.31;4992630;28;20061;-56
2022/05/30 08:34:00;;;;;;;4.68;1.05;;;;;;;14.26;63.54;101317.88;4988719;28;20042;-54
2022/05/30 08:36:28;;;;;;;5.75;0.90;;;;;;;14.05;62.87;101314.97;4990616;28;20101;-55
2022/05/30 08:41:48;;;;;;;3.97;0.82;;;;;;;14.23;63.50;101320.72;4989126;28;20054;-54
2022/05/30 08:44:18;;;;;;;4.38;1.10;;;;;;;14.26;64.11;101325.81;4987259;28;20054;-55
2022/05/30 08:46:55;;;;;;;5.63;0.93;;;;;;;14.13;61.87;101320.53;4992205;28;20060;-56
2022/05/30 08:49:28;;;;;;;6.95;1.05;;;;;;;14.50;63.47;101331.06;4992592;28;20514;-56
2022/05/30 08:52:39;;;;;;;4.30;0.75;;;;;;;14.46;61.39;101319.03;4992654;28;20089;-55
2022/05/30 08:55:22;;;;;;;3.67;0.85;;;;;;;14.64;60.29;101318.66;4990968;28;20093;-55
2022/05/30 08:58:01;;;;;;;4.20;0.73;;;;;;;14.52;60.48;101325.69;4989257;28;20058;-53
2022/05/30 09:00:34;;;;;;;3.65;0.82;;;;;;;14.62;59.58;101321.38;4989862;28;20448;-54
2022/05/30 09:03:13;;;;;;;6.65;1.00;;;;;;;14.75;61.42;101326.66;4991986;28;20038;-57
2022/05/30 09:05:46;;;;;;;3.83;0.80;;;;;;;14.78;58.99;101325.53;4991952;28;20114;-56
2022/05/30 09:08:23;;;;;;;4.40;0.88;;;;;;;14.94;58.58;101326.06;4992292;28;20497;-56
2022/05/30 09:10:57;;;;;;;5.05;0.90;;;;;;;15.07;56.27;101325.16;4992180;28;20112;-56
2022/05/30 09:13:34;;;;;;;2.53;0.80;;;;;;;15.11;54.81;101326.63;4987735;28;20510;-54
2022/05/30 09:16:07;;;;;;;4.50;1.08;;;;;;;15.10;57.19;101323.09;4989821;28;20053;-55
2022/05/30 09:18:44;;;;;;;4.05;0.98;;;;;;;15.34;56.70;101325.66;4992209;28;20058;-52
2022/05/30 09:21:14;;;;;;;4.88;1.20;;;;;;;15.61;57.26;101326.28;4992132;28;20498;-54
2022/05/30 09:23:43;;;;;;;2.90;0.80;;;;;;;15.65;56.51;101323.28;4988650;28;20121;-56
2022/05/30 09:26:16;;;;;;;5.05;1.08;;;;;;;15.77;55.80;101321.44;4989836;28;20409;-52
2022/05/30 09:28:48;;;;;;;4.43;0.90;;;;;;;15.84;56.81;101322.69;4992011;28;20104;-55
2022/05/30 09:31:26;;;;;;;3.55;0.90;;;;;;;15.80;55.90;101317.72;4991731;28;20061;-54
2022/05/30 09:33:57;;;;;;;4.47;1.08;;;;;;;16.00;57.55;101324.09;4988316;28;20054;-56
2022/05/30 09:36:27;;;;;;;3.95;1.00;;;;;;;15.93;54.48;101323.75;4989404;28;20394;-55
2022/05/30 09:39:00;;;;;;;7.15;0.90;;;;;;;16.01;55.33;101316.00;4992037;28;20622;-55
2022/05/30 09:41:31;;;;;;;4.05;0.90;;;;;;;16.14;54.33;101312.34;4993791;28;20061;-54
2022/05/30 09:44:03;;;;;;;3.63;0.70;;;;;;;16.27;55.77;101321.00;4991000;28;20054;-58
2022/05/30 09:46:37;;;;;;;3.05;0.82;;;;;;;16.13;53.72;101313.31;4991926;28;20769;-56
2022/05/30 09:49:10;;;;;;;5.57;1.05;;;;;;;16.17;53.62;101315.63;4995638;28;20113;-57
2022/05/30 09:51:41;;;;;;;4.95;1.00;;;;;;;16.36;54.26;101314.94;4995712;28;20104;-56
2022/05/30 09:54:12;;;;;;;5.50;1.20;;;;;;;16.30;54.05;101325.22;4995458;28;20051;-57
2022/05/30 09:56:45;;;;;;;3.13;0.82;;;;;;;16.20;53.14;101325.13;4995549;28;20078;-57
2022/05/30 09:59:31;;;;;;;3.22;0.95;;;;;;;16.12;54.33;101324.91;4995587;28;20492;-57
2022/05/30 10:02:00;;;;;;;4.95;0.90;;;;;;;16.06;54.85;101323.63;4993839;28;20405;-56
2022/05/30 10:04:36;;;;;;;6.22;1.20;;;;;;;16.21;54.31;101321.50;4992139;28;20366;-57
2022/05/30 10:07:13;;;;;;;2.03;0.70;;;;;;;16.39;54.79;101322.66;4994418;28;20100;-57
2022/05/30 10:09:52;;;;;;;5.30;0.90;;;;;;;16.47;51.66;101334.44;4994825;28;20050;-58
2022/05/30 10:12:33;;;;;;;2.90;1.10;;;;;;;16.48;50.92;101322.88;4991428;28;20055;-57
2022/05/30 10:15:23;;;;;;;3.83;1.02;;;;;;;16.25;51.81;101332.72;4991623;28;20054;-57
2022/05/30 10:17:52;;;;;;;2.72;0.75;;;;;;;16.30;51.96;101330.53;4995128;28;20042;-57
2022/05/30 10:20:26;;;;;;;3.97;0.93;;;;;;;16.52;51.27;101329.59;4993988;28;20093;-58
2022/05/30 10:28:54;;;;;;;5.82;0.70;;;;;;;16.80;49.44;101337.94;4994834;28;20046;-57
2022/05/30 10:31:34;;;;;;;2.97;0.60;;;;;;;16.74;49.05;101341.94;4994986;28;20046;-56
2022/05/30 10:34:54;;;;;;;4.75;0.80;;;;;;;16.92;49.03;101336.94;4994793;28;20056;-55
2022/05/30 10:37:41;;;;;;;2.45;0.85;;;;;;;16.76;47.48;101339.16;4995027;28;20073;-57
2022/05/30 10:40:22;;;;;;;3.67;0.80;;;;;;;17.17;49.03;101334.84;4991555;28;20058;-61
2022/05/30 10:42:56;;;;;;;2.97;0.77;;;;;;;17.04;45.76;101343.88;4990872;28;20050;-62
2022/05/30 10:45:29;;;;;;;5.03;1.13;;;;;;;17.22;47.58;101335.31;4994485;28;20046;-60
2022/05/30 10:47:59;;;;;;;;;;;;;;;17.15;49.01;101339.44;4994960;28;20446;-60
2022/05/30 10:50:43;;;;;;;3.78;1.00;;;;;;;16.98;47.88;101336.41;4991891;28;19921;-61
2022/05/30 10:53:25;;;;;;;3.92;1.00;;;;;;;17.17;49.60;101330.38;4989680;28;20050;-61
2022/05/30 10:55:58;;;;;;;4.47;1.00;;;;;;;17.05;47.98;101339.38;4993332;28;20070;-61
2022/05/30 10:58:29;;;;;;;;;;;;;;;16.88;49.85;101340.78;4990266;28;20050;-60
2022/05/30 11:01:01;;;;;;;3.40;1.13;;;;;;;16.53;50.78;101341.91;4992831;28;19925;-60
2022/05/30 11:03:39;;;;;;;5.63;1.20;;;;;;;16.20;52.47;101346.38;4994721;28;20469;-61
2022/05/30 11:06:16;;;;;;;2.33;1.10;;;;;;;16.08;51.74;101340.22;4994410;28;20839;-58
2022/05/30 11:08:55;;;;;;;6.45;1.40;;;;;;;15.89;51.87;101346.16;4994135;28;20407;-60
2022/05/30 11:11:32;;;;;;;3.17;1.08;;;;;;;16.13;53.35;101348.66;4994380;28;20061;-61
2022/05/30 11:14:10;;;;;;;4.88;1.63;;;;;;;15.97;53.07;101349.06;4988651;28;20085;-57
2022/05/30 11:16:46;;;;;;;5.95;1.30;;;;;;;16.02;51.55;101352.19;4991097;28;20632;-57
2022/05/30 11:19:21;;;;;;;3.85;1.20;;;;;;;16.07;51.76;101353.63;4994100;28;20121;-55
2022/05/30 11:22:05;;;;;;;4.78;1.50;;;;;;;16.01;51.87;101352.31;4993804;28;20050;-62
2022/05/30 11:24:37;;;;;;;4.10;1.25;;;;;;;16.05;52.84;101357.25;4994076;28;20057;-61
2022/05/30 11:27:34;;;;;;;5.63;1.20;;;;;;;15.94;51.12;101357.25;4993849;28;20502;-58
2022/05/30 11:30:28;;;;;;;4.57;1.20;;;;;;;15.68;50.28;101361.97;4991267;28;20109;-57
2022/05/30 11:33:25;;;;;;;3.60;1.13;;;;;;;15.63;50.63;101358.81;4990424;28;20046;-57
2022/05/30 11:36:10;;;;;;;2.22;0.95;;;;;;;15.69;51.48;101358.31;4993469;28;20042;-59
2022/05/30 11:39:02;;;;;;;5.07;1.10;;;;;;;15.88;52.32;101363.03;4990812;28;20374;-57
2022/05/30 11:41:44;;;;;;;3.50;0.98;;;;;;;15.94;51.79;101354.63;4990681;28;20482;-58
2022/05/30 11:44:42;;;;;;;5.28;1.08;;;;;;;16.01;51.56;101355.81;4993534;28;20104;-58
2022/05/30 11:47:23;;;;;;;5.28;1.30;;;;;;;16.20;51.81;101357.81;4991117;28;20144;-61
2022/05/30 11:50:00;;;;;;;3.03;1.08;;;;;;;16.27;51.34;101363.47;4993117;28;20050;-61
2022/05/30 11:52:34;;;;;;;5.57;1.33;;;;;;;16.30;51.32;101362.38;4993309;28;20038;-61
2022/05/30 11:55:20;;;;;;;5.18;1.48;;;;;;;16.32;50.38;101355.97;4993192;28;20120;-58
2022/05/30 11:57:51;;;;;;;4.53;1.10;;;;;;;16.16;50.58;101361.69;4989717;28;20418;-58
2022/05/30 12:00:32;;;;;;;5.38;1.33;;;;;;;15.56;50.66;101361.09;4987667;28;20093;-58
2022/05/30 12:03:32;;;;;;;3.08;1.20;;;;;;;15.62;50.79;101349.16;4991397;28;20053;-61